sensor_id;sensor_type;location;lat;lon;timestamp;P1;durP1;ratioP1;P2;durP2;ratioP2
80481;SDS011;69797;43.864;21.410;2023-07-29T00:01:51;9.60;;;4.90;;
80481;SDS011;69797;43.864;21.410;2023-07-29T00:04:20;8.88;;;3.65;;
80481;SDS011;69797;43.864;21.410;2023-07-29T00:06:46;6.20;;;3.10;;
80481;SDS011;69797;43.864;21.410;2023-07-29T00:09:13;5.97;;;3.45;;
80481;SDS011;69797;43.864;21.410;2023-07-29T00:11:40;8.45;;;3.42;;
80481;SDS011;69797;43.864;21.410;2023-07-29T00:14:07;7.43;;;2.63;;
80481;SDS011;69797;43.864;21.410;2023-07-29T00:16:33;8.63;;;3.00;;
80481;SDS011;69797;43.864;21.410;2023-07-29T00:19:02;11.80;;;3.40;;
80481;SDS011;69797;43.864;21.410;2023-07-29T00:21:29;10.88;;;4.00;;
80481;SDS011;69797;43.864;21.410;2023-07-29T00:23:56;12.07;;;3.50;;
80481;SDS011;69797;43.864;21.410;2023-07-29T00:26:23;9.77;;;3.37;;
80481;SDS011;69797;43.864;21.410;2023-07-29T00:28:52;16.05;;;4.00;;
80481;SDS011;69797;43.864;21.410;2023-07-29T00:31:19;12.40;;;3.95;;
80481;SDS011;69797;43.864;21.410;2023-07-29T00:33:46;10.23;;;3.47;;
80481;SDS011;69797;43.864;21.410;2023-07-29T00:36:12;24.08;;;4.13;;
80481;SDS011;69797;43.864;21.410;2023-07-29T00:38:39;15.03;;;3.73;;
80481;SDS011;69797;43.864;21.410;2023-07-29T00:41:06;12.35;;;3.55;;
80481;SDS011;69797;43.864;21.410;2023-07-29T00:43:33;14.70;;;3.38;;
80481;SDS011;69797;43.864;21.410;2023-07-29T00:46:00;11.98;;;3.88;;
80481;SDS011;69797;43.864;21.410;2023-07-29T00:48:27;11.45;;;3.45;;
80481;SDS011;69797;43.864;21.410;2023-07-29T00:50:54;7.67;;;2.77;;
80481;SDS011;69797;43.864;21.410;2023-07-29T00:53:21;16.73;;;3.88;;
80481;SDS011;69797;43.864;21.410;2023-07-29T00:55:48;10.05;;;3.30;;
80481;SDS011;69797;43.864;21.410;2023-07-29T00:58:15;16.55;;;3.17;;
80481;SDS011;69797;43.864;21.410;2023-07-29T01:00:42;11.07;;;3.28;;
80481;SDS011;69797;43.864;21.410;2023-07-29T01:03:08;11.13;;;3.03;;
80481;SDS011;69797;43.864;21.410;2023-07-29T01:05:39;10.57;;;3.45;;
80481;SDS011;69797;43.864;21.410;2023-07-29T01:08:21;12.75;;;3.92;;
80481;SDS011;69797;43.864;21.410;2023-07-29T01:13:37;10.52;;;3.22;;
80481;SDS011;69797;43.864;21.410;2023-07-29T01:16:17;8.53;;;3.73;;
80481;SDS011;69797;43.864;21.410;2023-07-29T01:18:50;11.85;;;4.03;;
80481;SDS011;69797;43.864;21.410;2023-07-29T01:21:20;11.77;;;4.22;;
80481;SDS011;69797;43.864;21.410;2023-07-29T01:23:51;12.98;;;3.78;;
80481;SDS011;69797;43.864;21.410;2023-07-29T01:26:19;9.10;;;3.88;;
80481;SDS011;69797;43.864;21.410;2023-07-29T01:28:46;12.23;;;3.97;;
80481;SDS011;69797;43.864;21.410;2023-07-29T01:31:14;9.00;;;4.10;;
80481;SDS011;69797;43.864;21.410;2023-07-29T01:33:56;10.02;;;4.68;;
80481;SDS011;69797;43.864;21.410;2023-07-29T01:36:26;8.73;;;4.13;;
80481;SDS011;69797;43.864;21.410;2023-07-29T01:38:55;14.75;;;5.22;;
80481;SDS011;69797;43.864;21.410;2023-07-29T01:41:24;8.40;;;3.53;;
80481;SDS011;69797;43.864;21.410;2023-07-29T01:43:52;14.18;;;3.92;;
80481;SDS011;69797;43.864;21.410;2023-07-29T01:46:19;13.82;;;4.05;;
80481;SDS011;69797;43.864;21.410;2023-07-29T01:48:46;14.18;;;4.05;;
80481;SDS011;69797;43.864;21.410;2023-07-29T01:51:13;10.45;;;3.65;;
80481;SDS011;69797;43.864;21.410;2023-07-29T01:53:40;9.90;;;2.83;;
80481;SDS011;69797;43.864;21.410;2023-07-29T01:56:07;15.88;;;3.97;;
80481;SDS011;69797;43.864;21.410;2023-07-29T01:58:34;14.27;;;3.20;;
80481;SDS011;69797;43.864;21.410;2023-07-29T02:01:01;9.93;;;3.50;;
80481;SDS011;69797;43.864;21.410;2023-07-29T02:03:27;14.60;;;3.72;;
80481;SDS011;69797;43.864;21.410;2023-07-29T02:05:54;9.07;;;2.70;;
80481;SDS011;69797;43.864;21.410;2023-07-29T02:08:21;15.10;;;3.30;;
80481;SDS011;69797;43.864;21.410;2023-07-29T02:10:48;8.75;;;3.28;;
80481;SDS011;69797;43.864;21.410;2023-07-29T02:13:15;25.13;;;5.68;;
80481;SDS011;69797;43.864;21.410;2023-07-29T02:15:42;7.25;;;2.88;;
80481;SDS011;69797;43.864;21.410;2023-07-29T02:18:09;8.90;;;3.17;;
80481;SDS011;69797;43.864;21.410;2023-07-29T02:20:35;8.00;;;2.92;;
80481;SDS011;69797;43.864;21.410;2023-07-29T02:23:02;12.27;;;2.90;;
80481;SDS011;69797;43.864;21.410;2023-07-29T02:25:29;14.52;;;3.30;;
80481;SDS011;69797;43.864;21.410;2023-07-29T02:27:56;11.43;;;3.67;;
80481;SDS011;69797;43.864;21.410;2023-07-29T02:30:23;8.37;;;3.00;;
80481;SDS011;69797;43.864;21.410;2023-07-29T02:32:49;9.35;;;3.22;;
80481;SDS011;69797;43.864;21.410;2023-07-29T02:35:16;12.25;;;3.65;;
80481;SDS011;69797;43.864;21.410;2023-07-29T02:37:43;16.98;;;3.33;;
80481;SDS011;69797;43.864;21.410;2023-07-29T02:40:10;16.48;;;3.25;;
80481;SDS011;69797;43.864;21.410;2023-07-29T02:42:37;15.77;;;3.83;;
80481;SDS011;69797;43.864;21.410;2023-07-29T02:45:05;17.10;;;3.50;;
80481;SDS011;69797;43.864;21.410;2023-07-29T02:47:36;16.60;;;3.85;;
80481;SDS011;69797;43.864;21.410;2023-07-29T02:50:04;19.30;;;4.18;;
80481;SDS011;69797;43.864;21.410;2023-07-29T02:52:31;13.10;;;3.50;;
80481;SDS011;69797;43.864;21.410;2023-07-29T02:54:58;10.83;;;3.17;;
80481;SDS011;69797;43.864;21.410;2023-07-29T02:57:25;14.40;;;3.50;;
80481;SDS011;69797;43.864;21.410;2023-07-29T02:59:52;13.93;;;4.70;;
80481;SDS011;69797;43.864;21.410;2023-07-29T03:02:18;14.93;;;3.53;;
80481;SDS011;69797;43.864;21.410;2023-07-29T03:04:47;14.70;;;3.30;;
80481;SDS011;69797;43.864;21.410;2023-07-29T03:07:14;18.37;;;3.93;;
80481;SDS011;69797;43.864;21.410;2023-07-29T03:09:41;13.15;;;3.35;;
80481;SDS011;69797;43.864;21.410;2023-07-29T03:12:08;11.27;;;4.07;;
80481;SDS011;69797;43.864;21.410;2023-07-29T03:14:35;22.02;;;4.00;;
80481;SDS011;69797;43.864;21.410;2023-07-29T03:17:02;18.45;;;4.00;;
80481;SDS011;69797;43.864;21.410;2023-07-29T03:19:30;11.27;;;3.93;;
80481;SDS011;69797;43.864;21.410;2023-07-29T03:21:57;20.38;;;3.83;;
80481;SDS011;69797;43.864;21.410;2023-07-29T03:24:24;15.73;;;3.60;;
80481;SDS011;69797;43.864;21.410;2023-07-29T03:26:51;19.50;;;5.00;;
80481;SDS011;69797;43.864;21.410;2023-07-29T03:29:18;11.88;;;3.03;;
80481;SDS011;69797;43.864;21.410;2023-07-29T03:31:44;13.47;;;3.67;;
80481;SDS011;69797;43.864;21.410;2023-07-29T03:34:11;15.63;;;4.60;;
80481;SDS011;69797;43.864;21.410;2023-07-29T03:36:39;15.00;;;3.63;;
80481;SDS011;69797;43.864;21.410;2023-07-29T03:39:05;13.18;;;4.95;;
80481;SDS011;69797;43.864;21.410;2023-07-29T03:41:34;15.60;;;4.20;;
80481;SDS011;69797;43.864;21.410;2023-07-29T03:44:00;8.57;;;3.50;;
80481;SDS011;69797;43.864;21.410;2023-07-29T03:46:27;16.75;;;3.80;;
80481;SDS011;69797;43.864;21.410;2023-07-29T03:48:54;11.90;;;4.07;;
80481;SDS011;69797;43.864;21.410;2023-07-29T03:51:21;14.27;;;3.63;;
80481;SDS011;69797;43.864;21.410;2023-07-29T03:53:48;7.60;;;3.28;;
80481;SDS011;69797;43.864;21.410;2023-07-29T03:56:15;11.90;;;4.27;;
80481;SDS011;69797;43.864;21.410;2023-07-29T03:58:42;10.38;;;4.20;;
80481;SDS011;69797;43.864;21.410;2023-07-29T04:01:10;13.45;;;3.38;;
80481;SDS011;69797;43.864;21.410;2023-07-29T04:03:37;14.45;;;4.03;;
80481;SDS011;69797;43.864;21.410;2023-07-29T04:06:04;17.13;;;3.67;;
80481;SDS011;69797;43.864;21.410;2023-07-29T04:08:30;11.83;;;3.60;;
80481;SDS011;69797;43.864;21.410;2023-07-29T04:10:57;13.32;;;3.30;;
80481;SDS011;69797;43.864;21.410;2023-07-29T04:13:24;8.75;;;3.53;;
80481;SDS011;69797;43.864;21.410;2023-07-29T04:15:51;11.55;;;3.33;;
80481;SDS011;69797;43.864;21.410;2023-07-29T04:18:18;16.77;;;4.32;;
80481;SDS011;69797;43.864;21.410;2023-07-29T04:20:45;7.97;;;3.97;;
80481;SDS011;69797;43.864;21.410;2023-07-29T04:25:57;14.27;;;4.90;;
80481;SDS011;69797;43.864;21.410;2023-07-29T04:28:24;20.55;;;4.35;;
80481;SDS011;69797;43.864;21.410;2023-07-29T04:30:51;15.55;;;4.28;;
80481;SDS011;69797;43.864;21.410;2023-07-29T04:33:18;11.73;;;4.30;;
80481;SDS011;69797;43.864;21.410;2023-07-29T04:35:45;8.32;;;3.45;;
80481;SDS011;69797;43.864;21.410;2023-07-29T04:38:12;12.02;;;4.22;;
80481;SDS011;69797;43.864;21.410;2023-07-29T04:40:38;18.60;;;4.38;;
80481;SDS011;69797;43.864;21.410;2023-07-29T04:43:05;15.93;;;4.43;;
80481;SDS011;69797;43.864;21.410;2023-07-29T04:45:32;23.13;;;4.67;;
80481;SDS011;69797;43.864;21.410;2023-07-29T04:47:59;12.40;;;4.45;;
80481;SDS011;69797;43.864;21.410;2023-07-29T04:50:26;12.73;;;4.53;;
80481;SDS011;69797;43.864;21.410;2023-07-29T04:52:52;12.23;;;4.13;;
80481;SDS011;69797;43.864;21.410;2023-07-29T04:55:19;13.48;;;5.07;;
80481;SDS011;69797;43.864;21.410;2023-07-29T04:57:46;8.93;;;3.67;;
80481;SDS011;69797;43.864;21.410;2023-07-29T05:00:13;12.20;;;4.63;;
80481;SDS011;69797;43.864;21.410;2023-07-29T05:02:40;16.85;;;5.57;;
80481;SDS011;69797;43.864;21.410;2023-07-29T05:05:06;14.50;;;4.13;;
80481;SDS011;69797;43.864;21.410;2023-07-29T05:07:34;13.57;;;4.90;;
80481;SDS011;69797;43.864;21.410;2023-07-29T05:10:01;9.70;;;5.07;;
80481;SDS011;69797;43.864;21.410;2023-07-29T05:12:27;7.85;;;4.10;;
80481;SDS011;69797;43.864;21.410;2023-07-29T05:14:55;10.55;;;4.82;;
80481;SDS011;69797;43.864;21.410;2023-07-29T05:17:22;10.02;;;4.35;;
80481;SDS011;69797;43.864;21.410;2023-07-29T05:19:49;7.88;;;4.30;;
80481;SDS011;69797;43.864;21.410;2023-07-29T05:22:16;8.23;;;4.73;;
80481;SDS011;69797;43.864;21.410;2023-07-29T05:24:42;6.68;;;4.25;;
80481;SDS011;69797;43.864;21.410;2023-07-29T05:27:09;7.85;;;4.57;;
80481;SDS011;69797;43.864;21.410;2023-07-29T05:29:36;5.30;;;3.97;;
80481;SDS011;69797;43.864;21.410;2023-07-29T05:32:03;6.10;;;4.63;;
80481;SDS011;69797;43.864;21.410;2023-07-29T05:34:30;7.23;;;4.90;;
80481;SDS011;69797;43.864;21.410;2023-07-29T05:36:56;9.05;;;4.85;;
80481;SDS011;69797;43.864;21.410;2023-07-29T05:39:23;9.30;;;5.18;;
80481;SDS011;69797;43.864;21.410;2023-07-29T05:41:50;6.55;;;4.05;;
80481;SDS011;69797;43.864;21.410;2023-07-29T05:44:17;6.20;;;5.05;;
80481;SDS011;69797;43.864;21.410;2023-07-29T05:46:44;7.07;;;4.50;;
80481;SDS011;69797;43.864;21.410;2023-07-29T05:49:11;5.70;;;4.20;;
80481;SDS011;69797;43.864;21.410;2023-07-29T05:51:38;5.70;;;4.90;;
80481;SDS011;69797;43.864;21.410;2023-07-29T05:54:06;4.78;;;4.30;;
80481;SDS011;69797;43.864;21.410;2023-07-29T05:56:33;6.50;;;4.10;;
80481;SDS011;69797;43.864;21.410;2023-07-29T05:59:00;7.07;;;4.03;;
80481;SDS011;69797;43.864;21.410;2023-07-29T06:01:27;8.57;;;4.60;;
80481;SDS011;69797;43.864;21.410;2023-07-29T06:06:39;9.43;;;4.38;;
80481;SDS011;69797;43.864;21.410;2023-07-29T06:09:05;6.45;;;5.05;;
80481;SDS011;69797;43.864;21.410;2023-07-29T06:11:32;4.30;;;3.80;;
80481;SDS011;69797;43.864;21.410;2023-07-29T06:13:59;6.10;;;4.55;;
80481;SDS011;69797;43.864;21.410;2023-07-29T06:16:26;5.43;;;4.65;;
80481;SDS011;69797;43.864;21.410;2023-07-29T06:18:52;5.50;;;4.90;;
80481;SDS011;69797;43.864;21.410;2023-07-29T06:21:19;5.95;;;5.13;;
80481;SDS011;69797;43.864;21.410;2023-07-29T06:23:46;7.57;;;5.47;;
80481;SDS011;69797;43.864;21.410;2023-07-29T06:26:14;6.07;;;4.70;;
80481;SDS011;69797;43.864;21.410;2023-07-29T06:28:41;6.32;;;5.05;;
80481;SDS011;69797;43.864;21.410;2023-07-29T06:31:07;6.43;;;5.07;;
80481;SDS011;69797;43.864;21.410;2023-07-29T06:33:34;7.72;;;5.25;;
80481;SDS011;69797;43.864;21.410;2023-07-29T06:36:01;5.17;;;4.67;;
80481;SDS011;69797;43.864;21.410;2023-07-29T06:38:28;6.57;;;5.07;;
80481;SDS011;69797;43.864;21.410;2023-07-29T06:40:55;6.20;;;4.40;;
80481;SDS011;69797;43.864;21.410;2023-07-29T06:43:21;5.88;;;5.28;;
80481;SDS011;69797;43.864;21.410;2023-07-29T06:45:48;6.25;;;5.75;;
80481;SDS011;69797;43.864;21.410;2023-07-29T06:48:15;6.60;;;5.83;;
80481;SDS011;69797;43.864;21.410;2023-07-29T06:50:42;6.53;;;5.93;;
80481;SDS011;69797;43.864;21.410;2023-07-29T06:53:09;6.10;;;4.68;;
80481;SDS011;69797;43.864;21.410;2023-07-29T06:55:35;5.95;;;4.78;;
80481;SDS011;69797;43.864;21.410;2023-07-29T06:58:02;5.97;;;5.22;;
80481;SDS011;69797;43.864;21.410;2023-07-29T07:00:29;6.23;;;5.63;;
80481;SDS011;69797;43.864;21.410;2023-07-29T07:02:56;6.05;;;5.45;;
80481;SDS011;69797;43.864;21.410;2023-07-29T07:05:23;6.55;;;5.32;;
80481;SDS011;69797;43.864;21.410;2023-07-29T07:07:50;6.25;;;5.57;;
80481;SDS011;69797;43.864;21.410;2023-07-29T07:10:16;6.32;;;5.72;;
80481;SDS011;69797;43.864;21.410;2023-07-29T07:12:43;5.73;;;4.87;;
80481;SDS011;69797;43.864;21.410;2023-07-29T07:15:10;7.65;;;5.40;;
80481;SDS011;69797;43.864;21.410;2023-07-29T07:17:37;5.22;;;4.22;;
80481;SDS011;69797;43.864;21.410;2023-07-29T07:20:04;5.47;;;4.22;;
80481;SDS011;69797;43.864;21.410;2023-07-29T07:22:32;5.00;;;4.03;;
80481;SDS011;69797;43.864;21.410;2023-07-29T07:24:58;5.43;;;4.13;;
80481;SDS011;69797;43.864;21.410;2023-07-29T07:27:25;4.80;;;4.28;;
80481;SDS011;69797;43.864;21.410;2023-07-29T07:29:52;4.90;;;4.30;;
80481;SDS011;69797;43.864;21.410;2023-07-29T07:32:19;5.72;;;4.65;;
80481;SDS011;69797;43.864;21.410;2023-07-29T07:34:45;6.38;;;5.07;;
80481;SDS011;69797;43.864;21.410;2023-07-29T07:37:12;7.20;;;4.70;;
80481;SDS011;69797;43.864;21.410;2023-07-29T07:39:39;8.10;;;5.43;;
80481;SDS011;69797;43.864;21.410;2023-07-29T07:42:06;5.18;;;4.60;;
80481;SDS011;69797;43.864;21.410;2023-07-29T07:44:32;4.75;;;3.83;;
80481;SDS011;69797;43.864;21.410;2023-07-29T07:46:59;5.30;;;4.40;;
80481;SDS011;69797;43.864;21.410;2023-07-29T07:49:31;5.30;;;4.53;;
80481;SDS011;69797;43.864;21.410;2023-07-29T07:51:58;4.78;;;4.18;;
80481;SDS011;69797;43.864;21.410;2023-07-29T07:54:25;5.15;;;3.92;;
80481;SDS011;69797;43.864;21.410;2023-07-29T07:56:51;5.30;;;4.05;;
80481;SDS011;69797;43.864;21.410;2023-07-29T07:59:18;5.50;;;4.18;;
80481;SDS011;69797;43.864;21.410;2023-07-29T08:01:45;7.57;;;3.90;;
80481;SDS011;69797;43.864;21.410;2023-07-29T08:04:12;5.82;;;4.53;;
80481;SDS011;69797;43.864;21.410;2023-07-29T08:06:39;8.32;;;5.20;;
80481;SDS011;69797;43.864;21.410;2023-07-29T08:09:05;5.55;;;3.92;;
80481;SDS011;69797;43.864;21.410;2023-07-29T08:11:32;6.43;;;4.55;;
80481;SDS011;69797;43.864;21.410;2023-07-29T08:13:59;4.60;;;4.10;;
80481;SDS011;69797;43.864;21.410;2023-07-29T08:16:26;5.45;;;4.30;;
80481;SDS011;69797;43.864;21.410;2023-07-29T08:18:52;6.38;;;4.50;;
80481;SDS011;69797;43.864;21.410;2023-07-29T08:21:19;6.97;;;4.60;;
80481;SDS011;69797;43.864;21.410;2023-07-29T08:23:46;6.90;;;5.15;;
80481;SDS011;69797;43.864;21.410;2023-07-29T08:26:13;5.97;;;4.33;;
80481;SDS011;69797;43.864;21.410;2023-07-29T08:28:39;4.57;;;3.97;;
80481;SDS011;69797;43.864;21.410;2023-07-29T08:31:06;4.90;;;4.20;;
80481;SDS011;69797;43.864;21.410;2023-07-29T08:33:34;5.25;;;3.80;;
80481;SDS011;69797;43.864;21.410;2023-07-29T08:36:01;9.63;;;4.93;;
80481;SDS011;69797;43.864;21.410;2023-07-29T08:38:29;6.17;;;4.40;;
80481;SDS011;69797;43.864;21.410;2023-07-29T08:41:16;6.03;;;5.30;;
80481;SDS011;69797;43.864;21.410;2023-07-29T08:44:07;10.68;;;6.22;;
80481;SDS011;69797;43.864;21.410;2023-07-29T08:46:39;8.15;;;5.25;;
80481;SDS011;69797;43.864;21.410;2023-07-29T08:49:07;6.50;;;5.88;;
80481;SDS011;69797;43.864;21.410;2023-07-29T08:51:34;7.10;;;5.07;;
80481;SDS011;69797;43.864;21.410;2023-07-29T08:54:01;7.53;;;6.20;;
80481;SDS011;69797;43.864;21.410;2023-07-29T08:56:28;10.20;;;7.25;;
80481;SDS011;69797;43.864;21.410;2023-07-29T08:58:56;8.10;;;5.55;;
80481;SDS011;69797;43.864;21.410;2023-07-29T09:01:25;8.57;;;5.10;;
80481;SDS011;69797;43.864;21.410;2023-07-29T09:03:52;8.67;;;5.03;;
80481;SDS011;69797;43.864;21.410;2023-07-29T09:06:19;9.65;;;5.63;;
80481;SDS011;69797;43.864;21.410;2023-07-29T09:08:48;10.93;;;5.60;;
80481;SDS011;69797;43.864;21.410;2023-07-29T09:11:17;6.32;;;5.20;;
80481;SDS011;69797;43.864;21.410;2023-07-29T09:13:44;9.40;;;6.43;;
80481;SDS011;69797;43.864;21.410;2023-07-29T09:16:11;6.23;;;4.77;;
80481;SDS011;69797;43.864;21.410;2023-07-29T09:18:38;5.13;;;4.07;;
80481;SDS011;69797;43.864;21.410;2023-07-29T09:21:04;8.63;;;5.13;;
80481;SDS011;69797;43.864;21.410;2023-07-29T09:23:41;6.75;;;4.60;;
80481;SDS011;69797;43.864;21.410;2023-07-29T09:26:09;6.47;;;4.53;;
80481;SDS011;69797;43.864;21.410;2023-07-29T09:28:37;5.80;;;3.80;;
80481;SDS011;69797;43.864;21.410;2023-07-29T09:31:05;6.28;;;4.25;;
80481;SDS011;69797;43.864;21.410;2023-07-29T09:33:35;5.28;;;3.97;;
80481;SDS011;69797;43.864;21.410;2023-07-29T09:36:08;6.13;;;3.78;;
80481;SDS011;69797;43.864;21.410;2023-07-29T09:38:35;6.60;;;4.18;;
80481;SDS011;69797;43.864;21.410;2023-07-29T09:41:03;6.37;;;3.87;;
80481;SDS011;69797;43.864;21.410;2023-07-29T09:43:30;5.47;;;3.63;;
80481;SDS011;69797;43.864;21.410;2023-07-29T09:46:02;5.82;;;4.10;;
80481;SDS011;69797;43.864;21.410;2023-07-29T09:48:34;6.80;;;3.78;;
80481;SDS011;69797;43.864;21.410;2023-07-29T09:51:14;6.10;;;3.90;;
80481;SDS011;69797;43.864;21.410;2023-07-29T09:53:45;6.10;;;3.90;;
80481;SDS011;69797;43.864;21.410;2023-07-29T09:56:13;4.32;;;3.10;;
80481;SDS011;69797;43.864;21.410;2023-07-29T09:58:44;6.35;;;3.70;;
80481;SDS011;69797;43.864;21.410;2023-07-29T10:01:14;5.90;;;3.47;;
80481;SDS011;69797;43.864;21.410;2023-07-29T10:03:42;7.28;;;3.78;;
80481;SDS011;69797;43.864;21.410;2023-07-29T10:06:10;7.00;;;3.80;;
80481;SDS011;69797;43.864;21.410;2023-07-29T10:08:38;5.63;;;3.50;;
80481;SDS011;69797;43.864;21.410;2023-07-29T10:11:06;8.35;;;3.25;;
80481;SDS011;69797;43.864;21.410;2023-07-29T10:13:35;5.00;;;3.10;;
80481;SDS011;69797;43.864;21.410;2023-07-29T10:16:02;4.88;;;3.40;;
80481;SDS011;69797;43.864;21.410;2023-07-29T10:18:31;6.03;;;3.43;;
80481;SDS011;69797;43.864;21.410;2023-07-29T10:21:00;7.15;;;3.60;;
80481;SDS011;69797;43.864;21.410;2023-07-29T10:23:28;7.45;;;3.38;;
80481;SDS011;69797;43.864;21.410;2023-07-29T10:26:03;4.25;;;2.85;;
80481;SDS011;69797;43.864;21.410;2023-07-29T10:28:32;5.97;;;3.45;;
80481;SDS011;69797;43.864;21.410;2023-07-29T10:31:01;5.93;;;3.13;;
80481;SDS011;69797;43.864;21.410;2023-07-29T10:33:29;4.60;;;2.85;;
80481;SDS011;69797;43.864;21.410;2023-07-29T10:35:59;3.95;;;2.92;;
80481;SDS011;69797;43.864;21.410;2023-07-29T10:38:27;5.25;;;3.40;;
80481;SDS011;69797;43.864;21.410;2023-07-29T10:40:55;6.13;;;3.50;;
80481;SDS011;69797;43.864;21.410;2023-07-29T10:43:25;4.50;;;3.07;;
80481;SDS011;69797;43.864;21.410;2023-07-29T10:46:15;3.88;;;3.10;;
80481;SDS011;69797;43.864;21.410;2023-07-29T10:48:44;4.55;;;3.25;;
80481;SDS011;69797;43.864;21.410;2023-07-29T10:53:57;7.15;;;3.45;;
80481;SDS011;69797;43.864;21.410;2023-07-29T10:56:34;4.30;;;3.63;;
80481;SDS011;69797;43.864;21.410;2023-07-29T11:01:39;4.85;;;2.90;;
80481;SDS011;69797;43.864;21.410;2023-07-29T11:09:40;4.33;;;3.10;;
80481;SDS011;69797;43.864;21.410;2023-07-29T11:12:38;3.33;;;2.60;;
80481;SDS011;69797;43.864;21.410;2023-07-29T11:15:25;6.72;;;2.92;;
80481;SDS011;69797;43.864;21.410;2023-07-29T11:18:02;5.47;;;3.00;;
80481;SDS011;69797;43.864;21.410;2023-07-29T11:20:30;3.50;;;2.78;;
80481;SDS011;69797;43.864;21.410;2023-07-29T11:22:59;4.53;;;2.73;;
80481;SDS011;69797;43.864;21.410;2023-07-29T11:25:28;4.35;;;2.55;;
80481;SDS011;69797;43.864;21.410;2023-07-29T11:27:57;5.18;;;2.95;;
80481;SDS011;69797;43.864;21.410;2023-07-29T11:30:28;5.78;;;2.95;;
80481;SDS011;69797;43.864;21.410;2023-07-29T11:32:57;4.47;;;2.70;;
80481;SDS011;69797;43.864;21.410;2023-07-29T11:35:25;5.10;;;2.60;;
80481;SDS011;69797;43.864;21.410;2023-07-29T11:37:53;5.47;;;2.55;;
80481;SDS011;69797;43.864;21.410;2023-07-29T11:40:23;6.72;;;2.55;;
80481;SDS011;69797;43.864;21.410;2023-07-29T11:42:50;3.90;;;2.80;;
80481;SDS011;69797;43.864;21.410;2023-07-29T11:45:18;3.42;;;2.50;;
80481;SDS011;69797;43.864;21.410;2023-07-29T11:47:50;3.83;;;2.63;;
80481;SDS011;69797;43.864;21.410;2023-07-29T11:50:19;3.03;;;2.33;;
80481;SDS011;69797;43.864;21.410;2023-07-29T11:52:46;6.82;;;2.60;;
80481;SDS011;69797;43.864;21.410;2023-07-29T11:55:14;5.10;;;2.60;;
80481;SDS011;69797;43.864;21.410;2023-07-29T11:57:42;4.15;;;2.50;;
80481;SDS011;69797;43.864;21.410;2023-07-29T12:00:10;4.33;;;2.47;;
80481;SDS011;69797;43.864;21.410;2023-07-29T12:02:39;3.72;;;2.40;;
80481;SDS011;69797;43.864;21.410;2023-07-29T12:05:08;4.90;;;2.17;;
80481;SDS011;69797;43.864;21.410;2023-07-29T12:07:39;3.85;;;2.50;;
80481;SDS011;69797;43.864;21.410;2023-07-29T12:10:07;3.35;;;1.90;;
80481;SDS011;69797;43.864;21.410;2023-07-29T12:12:38;4.87;;;1.80;;
80481;SDS011;69797;43.864;21.410;2023-07-29T12:15:11;3.45;;;2.10;;
80481;SDS011;69797;43.864;21.410;2023-07-29T12:17:41;3.25;;;1.95;;
80481;SDS011;69797;43.864;21.410;2023-07-29T12:20:09;4.07;;;2.08;;
80481;SDS011;69797;43.864;21.410;2023-07-29T12:22:37;5.32;;;2.13;;
80481;SDS011;69797;43.864;21.410;2023-07-29T12:25:04;4.33;;;2.20;;
80481;SDS011;69797;43.864;21.410;2023-07-29T12:27:31;7.63;;;2.97;;
80481;SDS011;69797;43.864;21.410;2023-07-29T12:29:58;3.72;;;2.10;;
80481;SDS011;69797;43.864;21.410;2023-07-29T12:32:30;3.20;;;1.92;;
80481;SDS011;69797;43.864;21.410;2023-07-29T12:34:57;4.53;;;2.25;;
80481;SDS011;69797;43.864;21.410;2023-07-29T12:37:30;4.37;;;1.93;;
80481;SDS011;69797;43.864;21.410;2023-07-29T12:39:59;3.35;;;2.10;;
80481;SDS011;69797;43.864;21.410;2023-07-29T12:42:26;3.47;;;2.15;;
80481;SDS011;69797;43.864;21.410;2023-07-29T12:44:52;3.72;;;1.98;;
80481;SDS011;69797;43.864;21.410;2023-07-29T12:47:19;3.58;;;2.00;;
80481;SDS011;69797;43.864;21.410;2023-07-29T12:49:46;4.50;;;2.23;;
80481;SDS011;69797;43.864;21.410;2023-07-29T12:52:13;3.80;;;2.40;;
80481;SDS011;69797;43.864;21.410;2023-07-29T12:54:40;3.67;;;2.10;;
80481;SDS011;69797;43.864;21.410;2023-07-29T12:57:07;3.65;;;2.55;;
80481;SDS011;69797;43.864;21.410;2023-07-29T12:59:35;4.75;;;2.53;;
80481;SDS011;69797;43.864;21.410;2023-07-29T13:02:02;4.43;;;2.30;;
80481;SDS011;69797;43.864;21.410;2023-07-29T13:04:32;3.78;;;2.53;;
80481;SDS011;69797;43.864;21.410;2023-07-29T13:06:59;4.72;;;2.20;;
80481;SDS011;69797;43.864;21.410;2023-07-29T13:09:26;5.38;;;2.15;;
80481;SDS011;69797;43.864;21.410;2023-07-29T13:11:53;4.13;;;2.40;;
80481;SDS011;69797;43.864;21.410;2023-07-29T13:14:19;4.40;;;2.27;;
80481;SDS011;69797;43.864;21.410;2023-07-29T13:16:46;3.75;;;2.15;;
80481;SDS011;69797;43.864;21.410;2023-07-29T13:19:13;6.38;;;2.10;;
80481;SDS011;69797;43.864;21.410;2023-07-29T13:21:40;4.55;;;2.33;;
80481;SDS011;69797;43.864;21.410;2023-07-29T13:24:07;4.55;;;2.22;;
80481;SDS011;69797;43.864;21.410;2023-07-29T13:26:33;5.47;;;2.17;;
80481;SDS011;69797;43.864;21.410;2023-07-29T13:29:01;3.25;;;2.08;;
80481;SDS011;69797;43.864;21.410;2023-07-29T13:31:28;5.38;;;2.42;;
80481;SDS011;69797;43.864;21.410;2023-07-29T13:33:54;4.60;;;2.40;;
80481;SDS011;69797;43.864;21.410;2023-07-29T13:36:21;5.60;;;2.10;;
80481;SDS011;69797;43.864;21.410;2023-07-29T13:38:48;4.30;;;2.50;;
80481;SDS011;69797;43.864;21.410;2023-07-29T13:41:15;6.82;;;2.47;;
80481;SDS011;69797;43.864;21.410;2023-07-29T13:43:42;4.95;;;2.45;;
80481;SDS011;69797;43.864;21.410;2023-07-29T13:46:08;4.82;;;2.15;;
80481;SDS011;69797;43.864;21.410;2023-07-29T13:48:35;6.13;;;2.60;;
80481;SDS011;69797;43.864;21.410;2023-07-29T13:51:02;6.30;;;3.27;;
80481;SDS011;69797;43.864;21.410;2023-07-29T13:53:29;6.50;;;2.90;;
80481;SDS011;69797;43.864;21.410;2023-07-29T13:55:56;5.45;;;2.63;;
80481;SDS011;69797;43.864;21.410;2023-07-29T13:58:23;8.88;;;2.40;;
80481;SDS011;69797;43.864;21.410;2023-07-29T14:00:50;6.97;;;2.80;;
80481;SDS011;69797;43.864;21.410;2023-07-29T14:03:16;5.17;;;2.43;;
80481;SDS011;69797;43.864;21.410;2023-07-29T14:05:43;6.10;;;2.75;;
80481;SDS011;69797;43.864;21.410;2023-07-29T14:08:11;6.68;;;2.78;;
80481;SDS011;69797;43.864;21.410;2023-07-29T14:10:38;5.45;;;3.00;;
80481;SDS011;69797;43.864;21.410;2023-07-29T14:13:05;8.40;;;2.72;;
80481;SDS011;69797;43.864;21.410;2023-07-29T14:15:31;5.77;;;3.30;;
80481;SDS011;69797;43.864;21.410;2023-07-29T14:18:01;6.60;;;2.90;;
80481;SDS011;69797;43.864;21.410;2023-07-29T14:20:29;4.93;;;3.10;;
80481;SDS011;69797;43.864;21.410;2023-07-29T14:22:55;6.35;;;3.17;;
80481;SDS011;69797;43.864;21.410;2023-07-29T14:25:22;5.80;;;2.88;;
80481;SDS011;69797;43.864;21.410;2023-07-29T14:30:34;8.00;;;3.17;;
80481;SDS011;69797;43.864;21.410;2023-07-29T14:33:01;6.80;;;3.22;;
80481;SDS011;69797;43.864;21.410;2023-07-29T14:35:28;4.10;;;2.65;;
80481;SDS011;69797;43.864;21.410;2023-07-29T14:37:55;6.55;;;2.80;;
80481;SDS011;69797;43.864;21.410;2023-07-29T14:40:22;5.27;;;2.53;;
80481;SDS011;69797;43.864;21.410;2023-07-29T14:42:49;4.80;;;3.15;;
80481;SDS011;69797;43.864;21.410;2023-07-29T14:45:15;6.13;;;3.10;;
80481;SDS011;69797;43.864;21.410;2023-07-29T14:47:42;4.40;;;2.45;;
80481;SDS011;69797;43.864;21.410;2023-07-29T14:50:09;4.50;;;3.20;;
80481;SDS011;69797;43.864;21.410;2023-07-29T14:52:36;4.73;;;2.77;;
80481;SDS011;69797;43.864;21.410;2023-07-29T14:55:03;4.32;;;2.13;;
80481;SDS011;69797;43.864;21.410;2023-07-29T14:57:30;5.57;;;2.90;;